Terminal Aerodrome Forecast
Issued by NWS

Home | Current Version | Previous Version | Text Only | Print | Product List | Glossary On
Versions: 1 2 3 4 5 6 7 8 9 10 11 12 13 14 15 16 17 18 19 20 21 22 23 24 25 26 27
000
FTUS43 KLSX 242300 RRA
TAFUIN
TAF
KUIN 242343Z 2500/2524 24008KT P6SM BKN250
     FM250200 21005KT P6SM BKN120
     FM250800 23006KT P6SM -RA OVC040
     FM251000 25010KT 3SM -RA BR OVC010
     FM251400 34014KT 2SM -RA BR OVC006
     FM251900 01017G27KT 3SM -RASN BR OVC006=

USA.gov is the U.S. government's official web portal to all federal, state and local government web resources and services.